Adah, PA

5:25 AM EDT on September 01, 2014 (GMT -0400)
Morgantown Municipal-Hart | Change Station
CLOSE
Current Station
Airport
Location: Morgantown,
Elevation: 1247 ft
Nearby Weather Stations

Elev 1247 ft 39.64 °N, 79.92 °W | Updated 5 minutes ago

Heavy Rain
Heavy Rain Mist
72 °F
Feels Like 72 °F
N
0
Wind Variable Wind from North

Today
High -- | Low -- °F
--% Chance of Precip.
Yesterday
High -- | Low -- °F
Precip. -- in
6:47 AM 7:50 PM
Waxing Crescent, 39% visible
Pressure 30.06 in
Visibility 1.8 miles
Clouds Scattered Clouds 1600 ft
Mostly Cloudy 2300 ft
Overcast 3200 ft
Dew Point 69 °F
Humidity 91%
Rainfall 0.07 in
Snow Depth Not available.
UV 0 out of 12
Pollen 5.90 out of 12
Air Quality Not available.
Flu Activity Not available.
SPECI KMGW 010920Z AUTO 00000KT 1 3/4SM +RA BR SCT016 BKN023 OVC032 22/21 A3006 RMK AO2 VIS 1 1/4V4 P0009 T02220206 TSNO

More Conditions Fewer Conditions

Pressure 30.06 in
Visibility 1.8 miles
Clouds Scattered Clouds 1600 ft
Mostly Cloudy 2300 ft
Overcast 3200 ft
Dew Point 69 °F
Humidity 91%
Rainfall 0.07 in
Snow Depth Not available.
UV 0 out of 12
Pollen 5.90 out of 12
Air Quality Not available.
Flu Activity Not available.
SPECI KMGW 010920Z AUTO 00000KT 1 3/4SM +RA BR SCT016 BKN023 OVC032 22/21 A3006 RMK AO2 VIS 1 1/4V4 P0009 T02220206 TSNO

More Conditions Fewer Conditions

10-Day Weather Forecast

Almanac

Astronomy

Sep. 01, 2014 Rise Set
Actual Time 6:47 AM EDT 7:50 PM EDT
Civil Twilight 6:19 AM EDT 8:18 PM EDT
Nautical Twilight 5:46 AM EDT 8:51 PM EDT
Astronomical Twilight 5:12 AM EDT 9:25 PM EDT
Moon 1:31 PM EDT 11:51 PM EDT
Length of Visible Light 13h 58m
Length of Day
13h 03m
Tomorrow will be 2m 31s shorter.
Waxing Crescent, 39% of the Moon is Illuminated
Today
Waxing Crescent
Sep 2
First Quarter
Sep 8
Full
Sep 15
Last Quarter
Sep 24
New

Today's Extremes

State Highs State Lows

Community

WunderPhotos

Upload Photos

1,749,178 photos uploaded!

Nearby

Snow Depth

Station Depth Elevation
No new snow has been reported.

Earthquake Activity

City Distance Mag. Time & Date
No recent earthquake activity has been reported nearby.
Minimum magnitude displayed is 2.5.

Coastal Water Temperatures

Place Temperature
No Stations Reporting

Nearby Weather Stations